Noblestown, Pennsylvania
Current Conditions -  °F | °C
As of 1:51 AM on Friday 31 Oct 2014 (Local Time) from KPIT Reporting Station
Overcast Overcast  
Wind Chill: 45°   Ceiling: 4700
Heat Index: 45°   Visibility: 10mi
Dew Point: 37°   Wind: 0mph
Humidity: 74%   Direction: NA
Pressure: 30.01"   Gusts: NA
Location:  40.4182°N, 80.2079°W
Report Text: KPIT 310551Z 00000KT 10SM OVC047 07/03 A3001 RMK AO2 SLP172 T00720028 10083 20067 58012
Loading
Personal Weather Stations






























Interactive Weather Map
Tropical Storm Tracking
New forecast layout! Learn more

10-Day Weather Forecast

Advertisements
Track Severe Weather on mobile